CYHA

Quaqtaq Airport

Quaqtaq, Quebec, Canada
METAR CYHA 212100Z 29007KT 15SM OVC009 M07/M09 A3023 RMK ST8 SN COV/TR LOOSE LAST STFD OBS/NEXT 221200UTC SLP241
Observed Flight Rules
Apr-21 @ 21:00 UTC (10 hours ago) Instrument Flight Rules
Wind Visibility Clouds
290° at 7 knots 15 miles
  • Overcast at 900' AGL
Temperatures Readings
Current -7°C / 19°F
Dewpoint -9°C / 16°F
Humidity 86%
Altimeter 30.23" Hg
Pressure 1024.1 hPa
Elevation 30
METAR CYHA 212100Z 29007KT 15SM OVC009 M07/M09 A3023 RMK ST8 SN COV/TR LOOSE LAST STFD OBS/NEXT 221200UTC SLP241
Observed Flight Rules
Apr-21 @ 21:00 UTC
(10 hours ago)
IFR
Wind Visibility
290° at 7 knots 15 miles
Clouds
  • Overcast at 900' AGL
Temperature Dewpoint
-7°C / 19°F -9°C / 16°F
Humidity Altimeter Pressure
86% 30.23" Hg 1024.1 hPa